createdAt,value
2023-03-14T00:00:37.231Z,12.1
2023-03-14T00:01:37.245Z,12.1
2023-03-14T00:02:37.337Z,12.1
2023-03-14T00:03:37.257Z,12.1
2023-03-14T00:04:37.224Z,12
2023-03-14T00:05:37.229Z,12
2023-03-14T00:06:37.223Z,12.1
2023-03-14T00:07:37.225Z,12
2023-03-14T00:08:37.236Z,12
2023-03-14T00:09:37.303Z,12
2023-03-14T00:10:37.221Z,12
2023-03-14T00:11:37.225Z,11.9
2023-03-14T00:12:37.238Z,12
2023-03-14T00:13:37.235Z,12
2023-03-14T00:14:37.226Z,12
2023-03-14T00:16:37.263Z,12
2023-03-14T00:17:37.221Z,11.9
2023-03-14T00:18:37.254Z,12
2023-03-14T00:19:37.236Z,12
2023-03-14T00:20:37.241Z,12
2023-03-14T00:21:37.220Z,12
2023-03-14T00:22:37.229Z,12
2023-03-14T00:23:37.229Z,12
2023-03-14T00:24:37.225Z,12
2023-03-14T00:25:37.232Z,12.1
2023-03-14T00:26:37.224Z,12.1
2023-03-14T00:27:37.228Z,12
2023-03-14T00:29:37.229Z,12
2023-03-14T00:30:37.256Z,12
2023-03-14T00:31:37.407Z,12
2023-03-14T00:32:37.277Z,12
2023-03-14T00:33:37.220Z,12
2023-03-14T00:34:37.231Z,12
2023-03-14T00:35:37.251Z,12
2023-03-14T00:36:37.251Z,12
2023-03-14T00:37:37.230Z,12
2023-03-14T00:39:37.232Z,12.1
2023-03-14T00:40:37.226Z,12.1
2023-03-14T00:41:37.226Z,12.1
2023-03-14T00:42:37.246Z,12.1
2023-03-14T00:44:37.257Z,12.1
2023-03-14T00:45:37.220Z,12.1
2023-03-14T00:47:37.292Z,12.2
2023-03-14T00:48:37.233Z,12.2
2023-03-14T00:49:37.235Z,12.2
2023-03-14T00:50:37.238Z,12.2
2023-03-14T00:52:37.252Z,12.1
2023-03-14T00:53:37.228Z,12.1
2023-03-14T00:54:37.222Z,12
2023-03-14T00:55:37.221Z,12
2023-03-14T00:56:37.224Z,11.9
2023-03-14T00:57:37.221Z,11.8
2023-03-14T00:58:37.223Z,11.8
2023-03-14T01:00:37.402Z,11.7
2023-03-14T01:01:37.281Z,11.6
2023-03-14T01:02:37.265Z,11.6
2023-03-14T01:03:37.228Z,11.5
2023-03-14T01:04:37.228Z,11.4
2023-03-14T01:05:37.256Z,11.3
2023-03-14T01:06:37.228Z,11.3
2023-03-14T01:08:37.276Z,11.3
2023-03-14T01:09:37.224Z,11.2
2023-03-14T01:11:37.246Z,11.1
2023-03-14T01:12:37.241Z,11.1
2023-03-14T01:13:37.224Z,11.1
2023-03-14T01:14:37.225Z,11.1
2023-03-14T01:15:37.218Z,11.1
2023-03-14T01:16:37.302Z,11.1
2023-03-14T01:17:37.215Z,11.1
2023-03-14T01:19:37.271Z,11
2023-03-14T01:20:37.228Z,11
2023-03-14T01:21:37.215Z,10.9
2023-03-14T01:22:37.228Z,10.9
2023-03-14T01:24:37.229Z,10.9
2023-03-14T01:25:37.223Z,10.9
2023-03-14T01:26:37.226Z,10.9
2023-03-14T01:27:37.230Z,10.9
2023-03-14T01:28:37.352Z,10.9
2023-03-14T01:29:37.225Z,11
2023-03-14T01:30:37.227Z,11
2023-03-14T01:32:37.278Z,11.1
2023-03-14T01:33:37.221Z,11.1
2023-03-14T01:34:37.243Z,11.1
2023-03-14T01:35:37.396Z,11
2023-03-14T01:36:37.267Z,11
2023-03-14T01:37:37.227Z,11
2023-03-14T01:38:37.231Z,11
2023-03-14T01:40:37.226Z,11
2023-03-14T01:41:37.226Z,11
2023-03-14T01:42:37.227Z,11
2023-03-14T01:43:37.231Z,11
2023-03-14T01:44:37.259Z,11
2023-03-14T01:46:37.223Z,11
2023-03-14T01:47:37.233Z,11
2023-03-14T01:48:37.226Z,10.9
2023-03-14T01:49:37.229Z,10.9
2023-03-14T01:50:37.226Z,10.9
2023-03-14T01:51:37.217Z,10.9
2023-03-14T01:53:37.234Z,11
2023-03-14T01:54:37.229Z,10.9
2023-03-14T01:55:37.225Z,10.9
2023-03-14T01:56:37.222Z,10.8
2023-03-14T01:57:37.219Z,10.7
2023-03-14T01:58:37.226Z,10.6
2023-03-14T01:59:37.225Z,10.6
2023-03-14T02:01:37.228Z,10.6
2023-03-14T02:02:37.221Z,10.6
2023-03-14T02:03:37.361Z,10.6
2023-03-14T02:04:37.626Z,10.6
2023-03-14T02:06:37.238Z,10.7
2023-03-14T02:07:37.230Z,10.6
2023-03-14T02:08:37.230Z,10.6
2023-03-14T02:09:37.225Z,10.5
2023-03-14T02:10:37.315Z,10.5
2023-03-14T02:11:37.225Z,10.6
2023-03-14T02:12:37.212Z,10.5
2023-03-14T02:14:37.222Z,10.5
2023-03-14T02:15:37.224Z,10.5
2023-03-14T02:16:37.387Z,10.5
2023-03-14T02:17:37.237Z,10.6
2023-03-14T02:18:37.208Z,10.5
2023-03-14T02:19:37.214Z,10.6
2023-03-14T02:20:37.240Z,10.6
2023-03-14T02:22:37.213Z,10.6
2023-03-14T02:23:37.211Z,10.7
2023-03-14T02:25:37.214Z,10.7
2023-03-14T02:26:37.221Z,10.7
2023-03-14T02:27:37.279Z,10.8
2023-03-14T02:28:37.244Z,10.8
2023-03-14T02:29:37.220Z,10.8
2023-03-14T02:30:37.212Z,10.8
2023-03-14T02:31:37.243Z,10.8
2023-03-14T02:33:37.226Z,10.9
2023-03-14T02:34:37.234Z,10.9
2023-03-14T02:35:37.293Z,10.9
2023-03-14T02:36:37.214Z,10.9
2023-03-14T02:37:37.215Z,10.9
2023-03-14T02:38:37.237Z,10.9
2023-03-14T02:39:37.215Z,10.9
2023-03-14T02:41:37.229Z,10.9
2023-03-14T02:42:37.211Z,10.8
2023-03-14T02:43:37.210Z,10.7
2023-03-14T02:44:37.218Z,10.7
2023-03-14T02:46:37.231Z,10.7
2023-03-14T02:47:37.209Z,10.8
2023-03-14T02:48:37.211Z,10.8
2023-03-14T02:49:37.213Z,10.8
2023-03-14T02:50:37.205Z,10.8
2023-03-14T02:51:37.205Z,10.8
2023-03-14T02:52:38.129Z,10.7
2023-03-14T02:54:37.219Z,10.7
2023-03-14T02:55:37.211Z,10.7
2023-03-14T02:56:37.233Z,10.6
2023-03-14T02:57:37.209Z,10.6
2023-03-14T02:58:37.219Z,10.6
2023-03-14T02:59:37.211Z,10.6
2023-03-14T03:00:37.204Z,10.5
2023-03-14T03:01:37.263Z,10.5
2023-03-14T03:02:37.228Z,10.5
2023-03-14T03:03:37.315Z,10.5
2023-03-14T03:04:37.207Z,10.5
2023-03-14T03:05:37.227Z,10.6
2023-03-14T03:06:37.234Z,10.6
2023-03-14T03:07:37.196Z,10.6
2023-03-14T03:09:37.210Z,10.6
2023-03-14T03:10:37.206Z,10.6
2023-03-14T03:11:37.216Z,10.6
2023-03-14T03:12:37.204Z,10.5
2023-03-14T03:13:37.202Z,10.5
2023-03-14T03:14:37.202Z,10.6
2023-03-14T03:15:37.209Z,10.6
2023-03-14T03:16:37.226Z,10.5
2023-03-14T03:17:37.219Z,10.5
2023-03-14T03:18:37.204Z,10.5
2023-03-14T03:19:37.202Z,10.6
2023-03-14T03:20:37.219Z,10.6
2023-03-14T03:21:37.206Z,10.6
2023-03-14T03:22:37.245Z,10.6
2023-03-14T03:23:37.211Z,10.5
2023-03-14T03:25:37.221Z,10.6
2023-03-14T03:26:37.207Z,10.6
2023-03-14T03:27:37.826Z,10.6
2023-03-14T03:28:37.211Z,10.6
2023-03-14T03:30:37.232Z,10.6
2023-03-14T03:31:37.206Z,10.6
2023-03-14T03:32:37.258Z,10.6
2023-03-14T03:33:37.207Z,10.6
2023-03-14T03:34:37.222Z,10.6
2023-03-14T03:35:37.228Z,10.6
2023-03-14T03:36:37.237Z,10.6
2023-03-14T03:38:37.217Z,10.7
2023-03-14T03:39:37.208Z,10.7
2023-03-14T03:40:37.246Z,10.6
2023-03-14T03:41:37.212Z,10.7
2023-03-14T03:42:37.209Z,10.6
2023-03-14T03:43:37.264Z,10.7
2023-03-14T03:44:37.210Z,10.7
2023-03-14T03:45:37.274Z,10.7
2023-03-14T03:46:37.206Z,10.7
2023-03-14T03:47:37.211Z,10.7
2023-03-14T03:49:37.212Z,10.7
2023-03-14T03:50:37.212Z,10.7
2023-03-14T03:51:37.207Z,10.7
2023-03-14T03:53:37.221Z,10.8
2023-03-14T03:54:37.214Z,10.8
2023-03-14T03:55:37.208Z,10.8
2023-03-14T03:57:37.208Z,10.8
2023-03-14T03:58:37.208Z,10.7
2023-03-14T03:59:37.221Z,10.7
2023-03-14T04:00:37.204Z,10.6
2023-03-14T04:01:37.212Z,10.6
2023-03-14T04:02:37.298Z,10.6
2023-03-14T04:03:37.366Z,10.6
2023-03-14T04:04:37.212Z,10.6
2023-03-14T04:05:37.209Z,10.6
2023-03-14T04:06:37.255Z,10.6
2023-03-14T04:07:37.226Z,10.6
2023-03-14T04:08:37.205Z,10.6
2023-03-14T04:10:37.208Z,10.6
2023-03-14T04:11:37.203Z,10.5
2023-03-14T04:12:37.213Z,10.5
2023-03-14T04:13:37.204Z,10.5
2023-03-14T04:14:37.233Z,10.5
2023-03-14T04:15:37.321Z,10.5
2023-03-14T04:16:37.213Z,10.4
2023-03-14T04:18:37.213Z,10.4
2023-03-14T04:19:37.268Z,10.5
2023-03-14T04:20:37.212Z,10.5
2023-03-14T04:21:37.230Z,10.6
2023-03-14T04:22:37.203Z,10.6
2023-03-14T04:23:37.220Z,10.6
2023-03-14T04:24:37.211Z,10.6
2023-03-14T04:25:37.205Z,10.6
2023-03-14T04:26:37.208Z,10.6
2023-03-14T04:27:37.207Z,10.6
2023-03-14T04:28:37.241Z,10.5
2023-03-14T04:29:37.217Z,10.5
2023-03-14T04:31:37.229Z,10.5
2023-03-14T04:32:37.237Z,10.5
2023-03-14T04:33:37.208Z,10.4
2023-03-14T04:34:37.209Z,10.4
2023-03-14T04:35:37.314Z,10.4
2023-03-14T04:36:39.643Z,10.3
2023-03-14T04:37:37.206Z,10.1
2023-03-14T04:39:37.202Z,10
2023-03-14T04:40:37.227Z,9.9
2023-03-14T04:41:37.208Z,9.9
2023-03-14T04:42:37.212Z,10
2023-03-14T04:43:37.223Z,9.9
2023-03-14T04:44:37.208Z,9.9
2023-03-14T04:46:37.253Z,10
2023-03-14T04:47:37.221Z,10
2023-03-14T04:48:37.239Z,10
2023-03-14T04:50:37.211Z,9.9
2023-03-14T04:51:37.215Z,9.9
2023-03-14T04:53:37.200Z,9.8
2023-03-14T04:54:37.215Z,9.8
2023-03-14T04:55:37.228Z,9.7
2023-03-14T04:56:37.232Z,9.8
2023-03-14T04:58:37.206Z,9.8
2023-03-14T04:59:37.195Z,9.7
2023-03-14T05:00:39.456Z,9.7
2023-03-14T05:01:37.255Z,9.7
2023-03-14T05:03:37.219Z,9.7
2023-03-14T05:04:37.198Z,9.7
2023-03-14T05:05:37.196Z,9.7
2023-03-14T05:06:37.191Z,9.7
2023-03-14T05:07:37.203Z,9.7
2023-03-14T05:08:37.270Z,9.8
2023-03-14T05:09:37.302Z,9.7
2023-03-14T05:11:37.194Z,9.7
2023-03-14T05:12:37.188Z,9.7
2023-03-14T05:13:39.856Z,9.6
2023-03-14T05:14:37.194Z,9.7
2023-03-14T05:15:37.208Z,9.7
2023-03-14T05:16:37.327Z,9.7
2023-03-14T05:17:37.194Z,9.8
2023-03-14T05:19:37.204Z,9.8
2023-03-14T05:20:37.192Z,9.9
2023-03-14T05:21:37.233Z,9.9
2023-03-14T05:22:37.307Z,9.8
2023-03-14T05:23:37.188Z,9.7
2023-03-14T05:24:37.289Z,9.6
2023-03-14T05:25:37.264Z,9.6
2023-03-14T05:26:37.188Z,9.6
2023-03-14T05:27:37.221Z,9.6
2023-03-14T05:28:37.189Z,9.5
2023-03-14T05:29:37.214Z,9.6
2023-03-14T05:30:37.234Z,9.6
2023-03-14T05:32:37.307Z,9.7
2023-03-14T05:33:37.225Z,9.7
2023-03-14T05:34:37.229Z,9.8
2023-03-14T05:35:37.258Z,9.8
2023-03-14T05:36:37.215Z,9.7
2023-03-14T05:37:37.184Z,9.8
2023-03-14T05:38:37.221Z,9.7
2023-03-14T05:39:37.242Z,9.7
2023-03-14T05:41:37.239Z,9.8
2023-03-14T05:42:37.228Z,9.8
2023-03-14T05:43:37.219Z,9.9
2023-03-14T05:45:37.262Z,10.1
2023-03-14T05:46:37.182Z,10.1
2023-03-14T05:47:37.257Z,10.1
2023-03-14T05:48:37.206Z,10.1
2023-03-14T05:49:37.181Z,10.1
2023-03-14T05:50:37.262Z,10.1
2023-03-14T05:51:37.204Z,10.1
2023-03-14T05:53:37.205Z,10.2
2023-03-14T05:54:37.198Z,10.1
2023-03-14T05:55:37.208Z,10.1
2023-03-14T05:56:37.227Z,10.1
2023-03-14T05:57:37.258Z,10.1
2023-03-14T05:58:37.186Z,10
2023-03-14T05:59:37.205Z,10
2023-03-14T06:01:37.191Z,10
2023-03-14T06:02:37.197Z,9.9
2023-03-14T06:03:37.231Z,9.9
2023-03-14T06:04:37.201Z,9.7
2023-03-14T06:06:37.224Z,9.7
2023-03-14T06:07:37.175Z,9.7
2023-03-14T06:08:37.182Z,9.8
2023-03-14T06:09:37.198Z,9.9
2023-03-14T06:10:37.185Z,9.8
2023-03-14T06:11:37.186Z,9.9
2023-03-14T06:12:37.186Z,9.8
2023-03-14T06:14:37.182Z,9.9
2023-03-14T06:15:37.188Z,9.9
2023-03-14T06:16:37.252Z,10
2023-03-14T06:17:37.189Z,10
2023-03-14T06:18:37.179Z,10
2023-03-14T06:19:37.185Z,10
2023-03-14T06:20:37.182Z,9.9
2023-03-14T06:22:37.187Z,9.8
2023-03-14T06:23:37.219Z,9.9
2023-03-14T06:24:37.181Z,9.8
2023-03-14T06:25:37.175Z,9.8
2023-03-14T06:26:37.183Z,9.8
2023-03-14T06:27:37.209Z,9.9
2023-03-14T06:28:37.191Z,9.9
2023-03-14T06:30:37.252Z,9.9
2023-03-14T06:31:37.176Z,9.9
2023-03-14T06:32:37.252Z,9.9
2023-03-14T06:33:37.175Z,9.9
2023-03-14T06:34:37.195Z,10
2023-03-14T06:35:37.217Z,10
2023-03-14T06:36:37.196Z,10
2023-03-14T06:37:37.185Z,10
2023-03-14T06:38:37.181Z,10
2023-03-14T06:39:37.179Z,10
2023-03-14T06:40:37.182Z,10.1
2023-03-14T06:41:37.178Z,10.1
2023-03-14T06:43:37.197Z,10.1
2023-03-14T06:44:37.191Z,10
2023-03-14T06:45:37.205Z,10
2023-03-14T06:46:37.185Z,10
2023-03-14T06:47:37.198Z,10.1
2023-03-14T06:48:37.192Z,10.1
2023-03-14T06:49:37.174Z,10
2023-03-14T06:51:37.177Z,10
2023-03-14T06:52:37.230Z,10
2023-03-14T06:53:37.173Z,10.1
2023-03-14T06:54:37.187Z,10.1
2023-03-14T06:55:37.193Z,10.1
2023-03-14T06:56:37.202Z,10.2
2023-03-14T06:57:37.175Z,10.1
2023-03-14T06:58:37.256Z,10.2
2023-03-14T06:59:37.186Z,10.2
2023-03-14T07:00:37.179Z,10.1
2023-03-14T07:01:37.244Z,10.2
2023-03-14T07:02:42.990Z,10.1
2023-03-14T07:04:37.232Z,10.1
2023-03-14T07:05:37.176Z,10.2
2023-03-14T07:06:37.180Z,10.2
2023-03-14T07:07:37.171Z,10.2
2023-03-14T07:08:37.171Z,10.2
2023-03-14T07:09:37.173Z,10.3
2023-03-14T07:10:37.189Z,10.3
2023-03-14T07:12:37.178Z,10.4
2023-03-14T07:13:37.188Z,10.4
2023-03-14T07:14:37.182Z,10.5
2023-03-14T07:15:37.196Z,10.5
2023-03-14T07:16:37.223Z,10.5
2023-03-14T07:17:37.179Z,10.5
2023-03-14T07:18:37.217Z,10.5
2023-03-14T07:19:37.229Z,10.5
2023-03-14T07:20:37.202Z,10.4
2023-03-14T07:21:37.185Z,10.4
2023-03-14T07:22:37.172Z,10.4
2023-03-14T07:23:37.182Z,10.3
2023-03-14T07:25:37.170Z,10.4
2023-03-14T07:26:37.179Z,10.4
2023-03-14T07:27:37.176Z,10.5
2023-03-14T07:28:37.176Z,10.5
2023-03-14T07:29:37.222Z,10.5
2023-03-14T07:31:37.181Z,10.5
2023-03-14T07:32:37.214Z,10.5
2023-03-14T07:33:37.183Z,10.6
2023-03-14T07:34:37.182Z,10.5
2023-03-14T07:35:37.189Z,10.5
2023-03-14T07:36:37.182Z,10.6
2023-03-14T07:37:37.194Z,10.7
2023-03-14T07:38:37.186Z,10.8
2023-03-14T07:39:37.175Z,10.8
2023-03-14T07:40:37.183Z,10.9
2023-03-14T07:41:37.172Z,10.8
2023-03-14T07:42:37.200Z,10.9
2023-03-14T07:44:37.175Z,10.9
2023-03-14T07:45:42.413Z,11
2023-03-14T07:46:37.250Z,11
2023-03-14T07:47:37.182Z,10.9
2023-03-14T07:48:37.200Z,10.9
2023-03-14T07:49:37.178Z,10.9
2023-03-14T07:50:37.182Z,10.9
2023-03-14T07:51:37.174Z,10.9
2023-03-14T07:52:37.183Z,10.9
2023-03-14T07:53:37.172Z,10.8
2023-03-14T07:54:37.180Z,10.8
2023-03-14T07:55:37.216Z,10.8
2023-03-14T07:56:37.197Z,10.8
2023-03-14T07:57:37.178Z,10.8
2023-03-14T07:58:37.182Z,10.7
2023-03-14T07:59:37.182Z,10.7
2023-03-14T08:00:37.275Z,10.8
2023-03-14T08:01:37.180Z,10.8
2023-03-14T08:02:37.346Z,10.8
2023-03-14T08:03:37.234Z,10.8
2023-03-14T08:05:37.179Z,10.8
2023-03-14T08:06:37.183Z,10.8
2023-03-14T08:07:37.175Z,10.9
2023-03-14T08:08:37.199Z,10.8
2023-03-14T08:09:37.169Z,10.9
2023-03-14T08:10:37.176Z,10.9
2023-03-14T08:11:37.259Z,11
2023-03-14T08:12:37.182Z,10.9
2023-03-14T08:13:37.198Z,10.9
2023-03-14T08:14:37.178Z,10.9
2023-03-14T08:15:37.191Z,11
2023-03-14T08:16:37.225Z,11
2023-03-14T08:17:37.177Z,11
2023-03-14T08:18:37.179Z,11
2023-03-14T08:19:37.187Z,11.1
2023-03-14T08:20:37.183Z,11.2
2023-03-14T08:21:37.197Z,11.2
2023-03-14T08:22:37.178Z,11.2
2023-03-14T08:23:37.177Z,11.2
2023-03-14T08:24:37.175Z,11.2
2023-03-14T08:26:37.185Z,11.4
2023-03-14T08:27:37.224Z,11.6
2023-03-14T08:28:37.176Z,11.7
2023-03-14T08:29:37.181Z,11.7
2023-03-14T08:30:37.247Z,11.8
2023-03-14T08:32:37.191Z,12
2023-03-14T08:33:37.168Z,12
2023-03-14T08:34:37.268Z,12
2023-03-14T08:35:37.181Z,11.9
2023-03-14T08:37:37.189Z,12
2023-03-14T08:38:37.186Z,12
2023-03-14T08:39:37.176Z,12
2023-03-14T08:40:37.188Z,12.1
2023-03-14T08:41:37.185Z,12.1
2023-03-14T08:42:37.179Z,12.2
2023-03-14T08:43:37.193Z,12.2
2023-03-14T08:45:37.186Z,12.2
2023-03-14T08:46:37.291Z,12.2
2023-03-14T08:47:37.169Z,12.2
2023-03-14T08:48:37.209Z,12.2
2023-03-14T08:49:37.250Z,12.3
2023-03-14T08:50:37.225Z,12.3
2023-03-14T08:51:37.195Z,12.3
2023-03-14T08:53:37.177Z,12.2
2023-03-14T08:54:37.183Z,12.1
2023-03-14T08:55:37.169Z,12.1
2023-03-14T08:56:37.172Z,12.1
2023-03-14T08:58:37.180Z,12.1
2023-03-14T08:59:37.170Z,12.1
2023-03-14T09:00:37.172Z,12.1
2023-03-14T09:01:37.231Z,11.9
2023-03-14T09:02:37.192Z,11.9
2023-03-14T09:03:37.168Z,11.9
2023-03-14T09:04:37.279Z,11.9
2023-03-14T09:05:37.177Z,11.8
2023-03-14T09:06:37.175Z,11.7
2023-03-14T09:07:37.180Z,11.7
2023-03-14T09:08:39.243Z,11.8
2023-03-14T09:09:37.170Z,11.7
2023-03-14T09:10:37.164Z,11.7
2023-03-14T09:11:37.166Z,11.6
2023-03-14T09:12:37.169Z,11.5
2023-03-14T09:14:37.177Z,11.5
2023-03-14T09:15:37.190Z,11.5
2023-03-14T09:16:37.390Z,11.5
2023-03-14T09:17:37.177Z,11.4
2023-03-14T09:19:37.177Z,11.4
2023-03-14T09:20:37.166Z,11.4
2023-03-14T09:21:37.180Z,11.4
2023-03-14T09:22:37.191Z,11.4
2023-03-14T09:23:37.187Z,11.3
2023-03-14T09:24:37.174Z,11.3
2023-03-14T09:25:37.176Z,11.2
2023-03-14T09:27:37.181Z,11.2
2023-03-14T09:28:37.170Z,11.2
2023-03-14T09:29:37.172Z,11.2
2023-03-14T09:30:37.173Z,11.2
2023-03-14T09:31:37.197Z,11.2
2023-03-14T09:32:37.227Z,11.2
2023-03-14T09:33:37.226Z,11.2
2023-03-14T09:35:37.198Z,11.3
2023-03-14T09:36:37.174Z,11.3
2023-03-14T09:37:37.174Z,11.3
2023-03-14T09:38:37.176Z,11.4
2023-03-14T09:39:37.178Z,11.4
2023-03-14T09:40:37.171Z,11.4
2023-03-14T09:41:37.174Z,11.5
2023-03-14T09:42:37.170Z,11.4
2023-03-14T09:44:37.161Z,11.4
2023-03-14T09:45:37.250Z,11.4
2023-03-14T09:47:41.488Z,11.4
2023-03-14T09:49:37.179Z,11.4
2023-03-14T09:50:37.173Z,11.4
2023-03-14T09:51:37.161Z,11.3
2023-03-14T09:52:37.212Z,11.3
2023-03-14T09:53:37.159Z,11.4
2023-03-14T09:54:37.167Z,11.4
2023-03-14T09:55:37.173Z,11.4
2023-03-14T09:57:37.170Z,11.4
2023-03-14T09:58:37.165Z,11.5
2023-03-14T09:59:37.157Z,11.5
2023-03-14T10:00:37.154Z,11.5
2023-03-14T10:01:37.223Z,11.5
2023-03-14T10:02:37.187Z,11.5
2023-03-14T10:03:37.170Z,11.5
2023-03-14T10:05:37.194Z,11.5
2023-03-14T10:06:37.179Z,11.5
2023-03-14T10:07:37.393Z,11.5
2023-03-14T10:08:37.161Z,11.4
2023-03-14T10:10:37.164Z,11.3
2023-03-14T10:11:37.168Z,11.3
2023-03-14T10:12:37.190Z,11.3
2023-03-14T10:13:37.156Z,11.3
2023-03-14T10:14:37.176Z,11.3
2023-03-14T10:15:37.148Z,11.3
2023-03-14T10:16:37.232Z,11.3
2023-03-14T10:18:37.163Z,11.3
2023-03-14T10:19:37.170Z,11.3
2023-03-14T10:20:37.167Z,11.3
2023-03-14T10:21:37.159Z,11.3
2023-03-14T10:22:37.176Z,11.2
2023-03-14T10:23:37.160Z,11.2
2023-03-14T10:24:37.157Z,11.1
2023-03-14T10:26:37.156Z,11.1
2023-03-14T10:27:37.159Z,11.1
2023-03-14T10:28:37.154Z,10.9
2023-03-14T10:29:37.155Z,10.8
2023-03-14T10:30:37.240Z,10.8
2023-03-14T10:31:37.154Z,10.9
2023-03-14T10:32:37.184Z,10.8
2023-03-14T10:33:37.158Z,10.7
2023-03-14T10:34:37.202Z,10.6
2023-03-14T10:35:37.298Z,10.6
2023-03-14T10:36:37.165Z,10.7
2023-03-14T10:37:37.158Z,10.8
2023-03-14T10:38:37.156Z,10.8
2023-03-14T10:39:37.159Z,10.7
2023-03-14T10:40:37.185Z,10.7
2023-03-14T10:41:37.182Z,10.6
2023-03-14T10:42:37.153Z,10.5
2023-03-14T10:43:37.170Z,10.5
2023-03-14T10:44:37.170Z,10.6
2023-03-14T10:45:37.219Z,10.7
2023-03-14T10:46:37.304Z,10.8
2023-03-14T10:47:37.163Z,10.8
2023-03-14T10:48:37.162Z,10.7
2023-03-14T10:50:37.164Z,10.7
2023-03-14T10:51:37.168Z,10.7
2023-03-14T10:53:03.763Z,10.5
2023-03-14T10:53:37.168Z,10.4
2023-03-14T10:54:37.160Z,10.3
2023-03-14T10:55:37.172Z,10.2
2023-03-14T10:56:37.192Z,10
2023-03-14T10:57:37.152Z,9.9
2023-03-14T10:58:37.164Z,9.8
2023-03-14T10:59:37.171Z,9.8
2023-03-14T11:00:37.218Z,9.7
2023-03-14T11:01:37.272Z,9.8
2023-03-14T11:02:37.158Z,9.9
2023-03-14T11:03:38.148Z,9.9
2023-03-14T11:04:37.253Z,10.1
2023-03-14T11:05:37.177Z,10.2
2023-03-14T11:06:37.201Z,10.4
2023-03-14T11:07:37.181Z,10.5
2023-03-14T11:08:37.163Z,10.6
2023-03-14T11:09:37.155Z,10.6
2023-03-14T11:10:37.156Z,10.6
2023-03-14T11:11:37.159Z,10.5
2023-03-14T11:12:37.177Z,10.5
2023-03-14T11:13:37.163Z,10.5
2023-03-14T11:14:37.156Z,10.5
2023-03-14T11:15:37.321Z,10.5
2023-03-14T11:16:37.165Z,10.4
2023-03-14T11:17:37.161Z,10.5
2023-03-14T11:19:37.220Z,10.3
2023-03-14T11:20:37.234Z,10.3
2023-03-14T11:21:37.169Z,10.4
2023-03-14T11:22:37.152Z,10.6
2023-03-14T11:23:37.166Z,10.8
2023-03-14T11:24:37.221Z,11
2023-03-14T11:25:37.167Z,11.1
2023-03-14T11:26:37.161Z,11.1
2023-03-14T11:27:37.169Z,11.1
2023-03-14T11:28:37.155Z,11.2
2023-03-14T11:29:37.151Z,11.1
2023-03-14T11:30:37.162Z,11.2
2023-03-14T11:31:37.204Z,11.3
2023-03-14T11:32:37.795Z,11.3
2023-03-14T11:33:37.646Z,11.2
2023-03-14T11:34:37.689Z,11.2
2023-03-14T11:35:37.738Z,11.3
2023-03-14T11:36:37.162Z,11.4
2023-03-14T11:37:37.209Z,11.4
2023-03-14T11:38:37.157Z,11.4
2023-03-14T11:40:37.160Z,11.3
2023-03-14T11:41:37.161Z,11.2
2023-03-14T11:42:37.151Z,11.1
2023-03-14T11:43:37.157Z,11
2023-03-14T11:44:37.159Z,10.9
2023-03-14T11:45:37.162Z,10.8
2023-03-14T11:46:37.331Z,10.8
2023-03-14T11:47:37.161Z,10.9
2023-03-14T11:48:37.158Z,11.1
2023-03-14T11:49:37.161Z,11.4
2023-03-14T11:50:37.158Z,11.7
2023-03-14T11:51:37.161Z,11.9
2023-03-14T11:53:37.160Z,11.8
2023-03-14T11:54:37.152Z,11.5
2023-03-14T11:55:37.154Z,11.4
2023-03-14T11:56:37.160Z,11.2
2023-03-14T11:57:37.164Z,11
2023-03-14T11:58:37.165Z,10.7
2023-03-14T11:59:37.163Z,10.6
2023-03-14T12:00:37.154Z,10.6
2023-03-14T12:01:37.192Z,10.7
2023-03-14T12:02:37.149Z,10.8
2023-03-14T12:04:37.175Z,11.1
2023-03-14T12:05:37.156Z,11.3
2023-03-14T12:06:37.302Z,11.5
2023-03-14T12:07:37.153Z,11.7
2023-03-14T12:08:37.178Z,11.9
2023-03-14T12:09:37.153Z,12.2
2023-03-14T12:10:37.149Z,12.2
2023-03-14T12:12:37.165Z,12.6
2023-03-14T12:13:37.157Z,12.7
2023-03-14T12:14:37.186Z,12.8
2023-03-14T12:15:37.163Z,13
2023-03-14T12:16:40.332Z,13.3
2023-03-14T12:17:37.154Z,13.5
2023-03-14T12:18:37.156Z,13.8
2023-03-14T12:20:37.163Z,14
2023-03-14T12:21:37.148Z,14.1
2023-03-14T12:22:37.168Z,14.2
2023-03-14T12:23:37.151Z,14.2
2023-03-14T12:25:37.163Z,14.2
2023-03-14T12:26:37.274Z,14.2
2023-03-14T12:28:37.160Z,14.1
2023-03-14T12:29:37.147Z,14.1
2023-03-14T12:30:37.197Z,14
2023-03-14T12:31:37.251Z,13.9
2023-03-14T12:33:37.156Z,13.8
2023-03-14T12:34:37.176Z,13.8
2023-03-14T12:35:37.177Z,13.7
2023-03-14T12:36:37.147Z,13.6
2023-03-14T12:37:37.149Z,13.3
2023-03-14T12:38:37.179Z,13
2023-03-14T12:39:37.173Z,12.6
2023-03-14T12:41:37.152Z,12.1
2023-03-14T12:42:44.518Z,12.1
2023-03-14T12:43:37.154Z,12
2023-03-14T12:44:37.151Z,12
2023-03-14T12:46:37.157Z,11.6
2023-03-14T12:47:37.145Z,11.3
2023-03-14T12:48:37.157Z,11.3
2023-03-14T12:49:37.190Z,11
2023-03-14T12:50:37.165Z,10.8
2023-03-14T12:51:37.149Z,10.7
2023-03-14T12:52:37.161Z,10.6
2023-03-14T12:54:37.154Z,10.8
2023-03-14T12:55:37.156Z,10.8
2023-03-14T12:56:37.158Z,10.8
2023-03-14T12:57:37.151Z,10.9
2023-03-14T12:58:37.150Z,11.1
2023-03-14T12:59:37.157Z,11.3
2023-03-14T13:00:37.153Z,11.5
2023-03-14T13:02:37.165Z,12
2023-03-14T13:04:40.083Z,12.4
2023-03-14T13:05:37.158Z,12.5
2023-03-14T13:07:37.163Z,12.7
2023-03-14T13:08:39.496Z,12.8
2023-03-14T13:09:37.148Z,12.8
2023-03-14T13:10:39.084Z,12.7
2023-03-14T13:11:37.150Z,12.6
2023-03-14T13:12:37.274Z,12.4
2023-03-14T13:13:37.168Z,12.3
2023-03-14T13:15:37.148Z,12
2023-03-14T13:16:37.252Z,11.9
2023-03-14T13:17:38.054Z,11.9
2023-03-14T13:18:37.144Z,11.8
2023-03-14T13:19:37.152Z,11.7
2023-03-14T13:20:37.162Z,11.7
2023-03-14T13:21:37.158Z,11.6
2023-03-14T13:22:37.146Z,11.5
2023-03-14T13:23:37.154Z,11.5
2023-03-14T13:24:37.154Z,11.5
2023-03-14T13:26:37.404Z,11.5
2023-03-14T13:27:37.171Z,11.5
2023-03-14T13:28:37.158Z,11.6
2023-03-14T13:29:37.146Z,11.7
2023-03-14T13:30:37.264Z,11.8
2023-03-14T13:31:37.151Z,11.8
2023-03-14T13:32:37.191Z,11.8
2023-03-14T13:34:37.237Z,11.9
2023-03-14T13:35:37.176Z,11.8
2023-03-14T13:36:37.207Z,11.9
2023-03-14T13:37:37.468Z,11.9
2023-03-14T13:39:37.192Z,12.1
2023-03-14T13:40:37.172Z,12.2
2023-03-14T13:41:37.188Z,12.3
2023-03-14T13:42:37.153Z,12.3
2023-03-14T13:43:37.149Z,12.3
2023-03-14T13:44:37.181Z,12.4
2023-03-14T13:45:37.150Z,12.4
2023-03-14T13:46:37.267Z,12.5
2023-03-14T13:47:37.176Z,12.5
2023-03-14T13:48:37.160Z,12.5
2023-03-14T13:49:37.157Z,12.6
2023-03-14T13:50:37.156Z,12.6
2023-03-14T13:51:37.146Z,12.8
2023-03-14T13:52:37.155Z,12.7
2023-03-14T13:53:37.295Z,12.8
2023-03-14T13:55:37.151Z,12.9
2023-03-14T13:56:37.147Z,13
2023-03-14T13:57:37.151Z,13
2023-03-14T13:58:37.155Z,13
2023-03-14T14:00:37.163Z,13
2023-03-14T14:01:37.213Z,13
2023-03-14T14:02:37.170Z,12.9
2023-03-14T14:03:37.149Z,13
2023-03-14T14:04:37.236Z,13
2023-03-14T14:05:37.146Z,13.1
2023-03-14T14:06:37.158Z,13.2
2023-03-14T14:08:38.351Z,13.1
2023-03-14T14:09:37.158Z,13
2023-03-14T14:10:37.151Z,12.9
2023-03-14T14:11:47.063Z,12.8
2023-03-14T14:12:37.178Z,12.6
2023-03-14T14:13:37.141Z,12.5
2023-03-14T14:14:37.147Z,12.5
2023-03-14T14:15:37.195Z,12.5
2023-03-14T14:16:37.158Z,12.5
2023-03-14T14:17:37.139Z,12.5
2023-03-14T14:18:37.156Z,12.5
2023-03-14T14:19:37.144Z,12.4
2023-03-14T14:20:37.157Z,12.4
2023-03-14T14:21:37.147Z,12.4
2023-03-14T14:22:37.147Z,12.5
2023-03-14T14:24:37.146Z,12.6
2023-03-14T14:25:37.168Z,12.6
2023-03-14T14:26:37.183Z,12.5
2023-03-14T14:27:37.146Z,12.5
2023-03-14T14:29:37.141Z,12.4
2023-03-14T14:30:37.162Z,12.4
2023-03-14T14:31:37.225Z,12.5
2023-03-14T14:32:37.231Z,12.4
2023-03-14T14:33:37.149Z,12.3
2023-03-14T14:35:37.187Z,12.2
2023-03-14T14:36:37.142Z,12.1
2023-03-14T14:37:37.170Z,11.9
2023-03-14T14:38:37.152Z,11.8
2023-03-14T14:40:37.161Z,11.6
2023-03-14T14:41:37.247Z,11.6
2023-03-14T14:42:37.155Z,11.5
2023-03-14T14:43:37.325Z,11.4
2023-03-14T14:44:37.162Z,11.3
2023-03-14T14:45:37.160Z,11.2
2023-03-14T14:46:37.218Z,11.2
2023-03-14T14:48:37.159Z,10.9
2023-03-14T14:49:37.146Z,10.9
2023-03-14T14:50:37.148Z,11
2023-03-14T14:51:37.158Z,11.1
2023-03-14T14:52:37.152Z,11.2
2023-03-14T14:53:37.149Z,11.3
2023-03-14T14:54:37.189Z,11.3
2023-03-14T14:55:37.144Z,11.4
2023-03-14T14:56:37.149Z,11.5
2023-03-14T14:57:37.205Z,11.5
2023-03-14T14:58:37.147Z,11.5
2023-03-14T14:59:37.459Z,11.5
2023-03-14T15:01:37.243Z,11.5
2023-03-14T15:02:37.214Z,11.4
2023-03-14T15:03:37.151Z,11.3
2023-03-14T15:04:37.208Z,11.2
2023-03-14T15:05:37.158Z,11
2023-03-14T15:06:37.145Z,11
2023-03-14T15:07:37.155Z,10.9
2023-03-14T15:09:37.152Z,10.9
2023-03-14T15:10:37.247Z,10.8
2023-03-14T15:11:37.161Z,10.8
2023-03-14T15:12:37.149Z,10.9
2023-03-14T15:13:37.144Z,10.9
2023-03-14T15:14:37.194Z,11
2023-03-14T15:15:37.146Z,11.1